Terminal Aerodrome Forecast
Issued by NWS

Home | Current Version | Previous Version | Text Only | Print | Product List | Glossary On
Versions: 1 2 3 4 5 6 7 8 9 10 11 12 13
000
FTUS43 KPAH 251100
TAFOWB
TAF
KOWB 251120Z 2512/2612 25006KT P6SM FEW040
      TEMPO 2512/2516 BKN040
     FM251800 30003KT P6SM SKC
     FM260900 00000KT 5SM BR SKC=

USA.gov is the U.S. government's official web portal to all federal, state and local government web resources and services.